sensor_id;sensor_type;location;lat;lon;timestamp;P1;durP1;ratioP1;P2;durP2;ratioP2
13834;SDS011;6988;52.614;13.500;2023-04-25T00:01:49;4.43;;;2.90;;
13834;SDS011;6988;52.614;13.500;2023-04-25T00:06:42;4.80;;;3.10;;
13834;SDS011;6988;52.614;13.500;2023-04-25T00:11:34;7.83;;;3.47;;
13834;SDS011;6988;52.614;13.500;2023-04-25T00:16:26;7.07;;;3.13;;
13834;SDS011;6988;52.614;13.500;2023-04-25T00:21:20;4.30;;;2.97;;
13834;SDS011;6988;52.614;13.500;2023-04-25T00:26:14;4.73;;;2.97;;
13834;SDS011;6988;52.614;13.500;2023-04-25T00:31:06;6.57;;;2.67;;
13834;SDS011;6988;52.614;13.500;2023-04-25T00:35:58;4.53;;;2.90;;
13834;SDS011;6988;52.614;13.500;2023-04-25T00:40:51;5.20;;;2.70;;
13834;SDS011;6988;52.614;13.500;2023-04-25T00:45:45;5.50;;;2.37;;
13834;SDS011;6988;52.614;13.500;2023-04-25T00:50:40;4.47;;;2.80;;
13834;SDS011;6988;52.614;13.500;2023-04-25T00:55:32;6.47;;;3.03;;
13834;SDS011;6988;52.614;13.500;2023-04-25T01:00:27;4.30;;;2.50;;
13834;SDS011;6988;52.614;13.500;2023-04-25T01:05:20;8.33;;;2.93;;
13834;SDS011;6988;52.614;13.500;2023-04-25T01:10:12;6.33;;;2.63;;
13834;SDS011;6988;52.614;13.500;2023-04-25T01:15:04;5.93;;;2.57;;
13834;SDS011;6988;52.614;13.500;2023-04-25T01:19:59;4.67;;;2.70;;
13834;SDS011;6988;52.614;13.500;2023-04-25T01:24:55;6.53;;;3.37;;
13834;SDS011;6988;52.614;13.500;2023-04-25T01:29:48;6.07;;;2.80;;
13834;SDS011;6988;52.614;13.500;2023-04-25T01:34:41;6.30;;;2.53;;
13834;SDS011;6988;52.614;13.500;2023-04-25T01:39:33;6.67;;;2.73;;
13834;SDS011;6988;52.614;13.500;2023-04-25T01:44:26;9.03;;;3.10;;
13834;SDS011;6988;52.614;13.500;2023-04-25T01:49:19;4.77;;;2.97;;
13834;SDS011;6988;52.614;13.500;2023-04-25T01:54:11;7.97;;;2.97;;
13834;SDS011;6988;52.614;13.500;2023-04-25T01:59:04;5.60;;;2.57;;
13834;SDS011;6988;52.614;13.500;2023-04-25T02:04:18;4.93;;;2.83;;
13834;SDS011;6988;52.614;13.500;2023-04-25T02:09:11;6.37;;;3.10;;
13834;SDS011;6988;52.614;13.500;2023-04-25T02:14:08;7.27;;;3.13;;
13834;SDS011;6988;52.614;13.500;2023-04-25T02:19:10;5.87;;;3.23;;
13834;SDS011;6988;52.614;13.500;2023-04-25T02:24:05;7.10;;;3.10;;
13834;SDS011;6988;52.614;13.500;2023-04-25T02:28:58;5.27;;;3.03;;
13834;SDS011;6988;52.614;13.500;2023-04-25T02:33:51;6.80;;;3.30;;
13834;SDS011;6988;52.614;13.500;2023-04-25T02:38:43;8.93;;;3.53;;
13834;SDS011;6988;52.614;13.500;2023-04-25T02:43:36;6.77;;;3.40;;
13834;SDS011;6988;52.614;13.500;2023-04-25T02:48:28;6.47;;;3.53;;
13834;SDS011;6988;52.614;13.500;2023-04-25T02:53:19;7.77;;;3.43;;
13834;SDS011;6988;52.614;13.500;2023-04-25T02:58:14;7.87;;;3.90;;
13834;SDS011;6988;52.614;13.500;2023-04-25T03:03:12;9.30;;;4.03;;
13834;SDS011;6988;52.614;13.500;2023-04-25T03:08:04;9.17;;;4.00;;
13834;SDS011;6988;52.614;13.500;2023-04-25T03:12:57;9.70;;;4.10;;
13834;SDS011;6988;52.614;13.500;2023-04-25T03:17:49;9.33;;;3.87;;
13834;SDS011;6988;52.614;13.500;2023-04-25T03:22:43;10.90;;;4.33;;
13834;SDS011;6988;52.614;13.500;2023-04-25T03:27:35;7.27;;;4.27;;
13834;SDS011;6988;52.614;13.500;2023-04-25T03:32:27;7.70;;;3.90;;
13834;SDS011;6988;52.614;13.500;2023-04-25T03:37:19;6.80;;;4.10;;
13834;SDS011;6988;52.614;13.500;2023-04-25T03:42:12;7.80;;;4.30;;
13834;SDS011;6988;52.614;13.500;2023-04-25T03:47:07;7.70;;;4.27;;
13834;SDS011;6988;52.614;13.500;2023-04-25T03:51:59;6.07;;;4.00;;
13834;SDS011;6988;52.614;13.500;2023-04-25T03:56:54;9.07;;;4.40;;
13834;SDS011;6988;52.614;13.500;2023-04-25T04:01:51;8.80;;;4.43;;
13834;SDS011;6988;52.614;13.500;2023-04-25T04:06:43;9.43;;;4.50;;
13834;SDS011;6988;52.614;13.500;2023-04-25T04:11:40;8.93;;;4.37;;
13834;SDS011;6988;52.614;13.500;2023-04-25T04:16:32;7.00;;;4.03;;
13834;SDS011;6988;52.614;13.500;2023-04-25T04:21:26;8.97;;;4.40;;
13834;SDS011;6988;52.614;13.500;2023-04-25T04:26:18;8.70;;;4.10;;
13834;SDS011;6988;52.614;13.500;2023-04-25T04:31:21;7.60;;;4.13;;
13834;SDS011;6988;52.614;13.500;2023-04-25T04:36:14;7.13;;;3.70;;
13834;SDS011;6988;52.614;13.500;2023-04-25T04:41:11;7.83;;;4.10;;
13834;SDS011;6988;52.614;13.500;2023-04-25T04:46:33;8.90;;;3.77;;
13834;SDS011;6988;52.614;13.500;2023-04-25T04:51:56;11.50;;;3.90;;
13834;SDS011;6988;52.614;13.500;2023-04-25T04:57:03;6.57;;;4.40;;
13834;SDS011;6988;52.614;13.500;2023-04-25T05:02:22;6.40;;;3.97;;
13834;SDS011;6988;52.614;13.500;2023-04-25T05:07:40;6.53;;;3.90;;
13834;SDS011;6988;52.614;13.500;2023-04-25T05:12:47;5.13;;;3.50;;
13834;SDS011;6988;52.614;13.500;2023-04-25T05:17:58;7.63;;;3.63;;
13834;SDS011;6988;52.614;13.500;2023-04-25T05:23:19;5.73;;;3.27;;
13834;SDS011;6988;52.614;13.500;2023-04-25T05:28:23;7.53;;;3.87;;
13834;SDS011;6988;52.614;13.500;2023-04-25T05:33:38;4.97;;;3.87;;
13834;SDS011;6988;52.614;13.500;2023-04-25T05:38:32;6.07;;;3.70;;
13834;SDS011;6988;52.614;13.500;2023-04-25T05:43:48;7.70;;;3.60;;
13834;SDS011;6988;52.614;13.500;2023-04-25T05:48:47;7.57;;;4.20;;
13834;SDS011;6988;52.614;13.500;2023-04-25T05:53:54;10.23;;;4.23;;
13834;SDS011;6988;52.614;13.500;2023-04-25T05:58:46;6.23;;;3.80;;
13834;SDS011;6988;52.614;13.500;2023-04-25T06:03:39;8.03;;;4.03;;
13834;SDS011;6988;52.614;13.500;2023-04-25T06:08:33;8.87;;;3.87;;
13834;SDS011;6988;52.614;13.500;2023-04-25T06:13:25;7.70;;;4.27;;
13834;SDS011;6988;52.614;13.500;2023-04-25T06:18:17;9.00;;;4.33;;
13834;SDS011;6988;52.614;13.500;2023-04-25T06:23:10;10.17;;;4.87;;
13834;SDS011;6988;52.614;13.500;2023-04-25T06:28:29;7.00;;;4.40;;
13834;SDS011;6988;52.614;13.500;2023-04-25T06:33:20;9.27;;;4.87;;
13834;SDS011;6988;52.614;13.500;2023-04-25T06:38:16;10.00;;;4.27;;
13834;SDS011;6988;52.614;13.500;2023-04-25T06:43:12;7.23;;;4.40;;
13834;SDS011;6988;52.614;13.500;2023-04-25T06:48:22;7.03;;;4.40;;
13834;SDS011;6988;52.614;13.500;2023-04-25T06:53:17;9.00;;;4.53;;
13834;SDS011;6988;52.614;13.500;2023-04-25T06:58:13;9.50;;;4.43;;
13834;SDS011;6988;52.614;13.500;2023-04-25T07:03:28;9.63;;;4.23;;
13834;SDS011;6988;52.614;13.500;2023-04-25T07:08:26;8.00;;;4.70;;
13834;SDS011;6988;52.614;13.500;2023-04-25T07:13:18;7.40;;;4.37;;
13834;SDS011;6988;52.614;13.500;2023-04-25T07:18:10;8.13;;;4.77;;
13834;SDS011;6988;52.614;13.500;2023-04-25T07:23:02;8.83;;;4.77;;
13834;SDS011;6988;52.614;13.500;2023-04-25T07:27:55;8.23;;;4.20;;
13834;SDS011;6988;52.614;13.500;2023-04-25T07:32:47;8.97;;;4.20;;
13834;SDS011;6988;52.614;13.500;2023-04-25T07:37:40;9.90;;;3.90;;
13834;SDS011;6988;52.614;13.500;2023-04-25T07:42:41;10.87;;;4.13;;
13834;SDS011;6988;52.614;13.500;2023-04-25T07:47:36;12.07;;;3.63;;
13834;SDS011;6988;52.614;13.500;2023-04-25T07:52:30;10.33;;;3.50;;
13834;SDS011;6988;52.614;13.500;2023-04-25T07:57:46;10.70;;;3.80;;
13834;SDS011;6988;52.614;13.500;2023-04-25T08:02:39;12.33;;;3.93;;
13834;SDS011;6988;52.614;13.500;2023-04-25T08:07:36;13.10;;;3.50;;
13834;SDS011;6988;52.614;13.500;2023-04-25T08:12:29;13.23;;;3.40;;
13834;SDS011;6988;52.614;13.500;2023-04-25T08:17:22;13.87;;;4.10;;
13834;SDS011;6988;52.614;13.500;2023-04-25T08:22:16;14.43;;;3.60;;
13834;SDS011;6988;52.614;13.500;2023-04-25T08:27:16;15.80;;;4.80;;
13834;SDS011;6988;52.614;13.500;2023-04-25T08:37:26;16.93;;;3.47;;
13834;SDS011;6988;52.614;13.500;2023-04-25T08:42:26;18.60;;;3.77;;
13834;SDS011;6988;52.614;13.500;2023-04-25T08:47:23;14.30;;;4.17;;
13834;SDS011;6988;52.614;13.500;2023-04-25T08:52:21;14.93;;;4.00;;
13834;SDS011;6988;52.614;13.500;2023-04-25T08:57:17;15.20;;;4.10;;
13834;SDS011;6988;52.614;13.500;2023-04-25T09:02:12;11.93;;;2.77;;
13834;SDS011;6988;52.614;13.500;2023-04-25T09:07:06;11.23;;;3.10;;
13834;SDS011;6988;52.614;13.500;2023-04-25T09:11:58;12.13;;;3.10;;
13834;SDS011;6988;52.614;13.500;2023-04-25T09:17:00;13.57;;;3.23;;
13834;SDS011;6988;52.614;13.500;2023-04-25T09:22:10;12.60;;;3.10;;
13834;SDS011;6988;52.614;13.500;2023-04-25T09:27:03;10.03;;;3.27;;
13834;SDS011;6988;52.614;13.500;2023-04-25T09:32:14;12.87;;;3.10;;
13834;SDS011;6988;52.614;13.500;2023-04-25T09:37:12;15.43;;;3.43;;
13834;SDS011;6988;52.614;13.500;2023-04-25T09:42:46;9.53;;;3.00;;
13834;SDS011;6988;52.614;13.500;2023-04-25T09:47:43;14.23;;;3.70;;
13834;SDS011;6988;52.614;13.500;2023-04-25T09:52:37;12.33;;;2.77;;
13834;SDS011;6988;52.614;13.500;2023-04-25T09:57:44;12.47;;;2.60;;
13834;SDS011;6988;52.614;13.500;2023-04-25T10:02:53;12.80;;;2.50;;
13834;SDS011;6988;52.614;13.500;2023-04-25T10:08:08;6.90;;;1.97;;
13834;SDS011;6988;52.614;13.500;2023-04-25T10:13:00;11.10;;;3.03;;
13834;SDS011;6988;52.614;13.500;2023-04-25T10:17:57;8.10;;;2.20;;
13834;SDS011;6988;52.614;13.500;2023-04-25T10:22:50;10.77;;;2.33;;
13834;SDS011;6988;52.614;13.500;2023-04-25T10:27:47;9.93;;;2.50;;
13834;SDS011;6988;52.614;13.500;2023-04-25T10:32:42;8.57;;;2.17;;
13834;SDS011;6988;52.614;13.500;2023-04-25T10:37:36;6.80;;;2.10;;
13834;SDS011;6988;52.614;13.500;2023-04-25T10:42:28;4.97;;;1.60;;
13834;SDS011;6988;52.614;13.500;2023-04-25T10:47:21;7.27;;;2.03;;
13834;SDS011;6988;52.614;13.500;2023-04-25T10:52:26;7.53;;;2.23;;
13834;SDS011;6988;52.614;13.500;2023-04-25T10:57:27;6.97;;;1.93;;
13834;SDS011;6988;52.614;13.500;2023-04-25T11:02:28;7.37;;;2.00;;
13834;SDS011;6988;52.614;13.500;2023-04-25T11:07:23;8.60;;;2.13;;
13834;SDS011;6988;52.614;13.500;2023-04-25T11:12:27;6.10;;;1.90;;
13834;SDS011;6988;52.614;13.500;2023-04-25T11:17:22;8.87;;;1.53;;
13834;SDS011;6988;52.614;13.500;2023-04-25T11:22:16;8.07;;;1.80;;
13834;SDS011;6988;52.614;13.500;2023-04-25T11:27:08;6.67;;;1.70;;
13834;SDS011;6988;52.614;13.500;2023-04-25T11:32:01;5.67;;;1.60;;
13834;SDS011;6988;52.614;13.500;2023-04-25T11:36:53;5.53;;;1.60;;
13834;SDS011;6988;52.614;13.500;2023-04-25T11:41:45;6.70;;;1.43;;
13834;SDS011;6988;52.614;13.500;2023-04-25T11:46:37;5.80;;;1.80;;
13834;SDS011;6988;52.614;13.500;2023-04-25T11:51:31;4.93;;;1.80;;
13834;SDS011;6988;52.614;13.500;2023-04-25T11:56:30;6.03;;;1.73;;
13834;SDS011;6988;52.614;13.500;2023-04-25T12:01:26;9.07;;;1.70;;
13834;SDS011;6988;52.614;13.500;2023-04-25T12:06:20;4.30;;;1.43;;
13834;SDS011;6988;52.614;13.500;2023-04-25T12:11:21;6.27;;;2.10;;
13834;SDS011;6988;52.614;13.500;2023-04-25T12:16:13;7.23;;;2.00;;
13834;SDS011;6988;52.614;13.500;2023-04-25T12:21:05;7.60;;;1.63;;
13834;SDS011;6988;52.614;13.500;2023-04-25T12:25:57;4.87;;;1.40;;
13834;SDS011;6988;52.614;13.500;2023-04-25T12:30:53;4.77;;;1.13;;
13834;SDS011;6988;52.614;13.500;2023-04-25T12:35:50;4.13;;;1.63;;
13834;SDS011;6988;52.614;13.500;2023-04-25T12:40:43;7.00;;;1.50;;
13834;SDS011;6988;52.614;13.500;2023-04-25T12:45:35;6.63;;;1.70;;
13834;SDS011;6988;52.614;13.500;2023-04-25T12:50:28;7.27;;;1.87;;
13834;SDS011;6988;52.614;13.500;2023-04-25T12:55:20;8.13;;;1.90;;
13834;SDS011;6988;52.614;13.500;2023-04-25T13:00:12;7.97;;;1.60;;
13834;SDS011;6988;52.614;13.500;2023-04-25T13:05:08;5.67;;;1.70;;
13834;SDS011;6988;52.614;13.500;2023-04-25T13:10:01;5.37;;;1.60;;
13834;SDS011;6988;52.614;13.500;2023-04-25T13:14:53;6.13;;;1.67;;
13834;SDS011;6988;52.614;13.500;2023-04-25T13:19:45;5.80;;;2.17;;
13834;SDS011;6988;52.614;13.500;2023-04-25T13:24:37;7.60;;;1.70;;
13834;SDS011;6988;52.614;13.500;2023-04-25T13:29:30;5.23;;;1.70;;
13834;SDS011;6988;52.614;13.500;2023-04-25T13:34:24;7.70;;;1.70;;
13834;SDS011;6988;52.614;13.500;2023-04-25T13:39:16;7.20;;;1.97;;
13834;SDS011;6988;52.614;13.500;2023-04-25T13:44:08;7.83;;;1.90;;
13834;SDS011;6988;52.614;13.500;2023-04-25T13:49:01;7.97;;;1.93;;
13834;SDS011;6988;52.614;13.500;2023-04-25T13:53:53;6.20;;;1.60;;
13834;SDS011;6988;52.614;13.500;2023-04-25T13:58:45;6.57;;;1.90;;
13834;SDS011;6988;52.614;13.500;2023-04-25T14:03:37;7.37;;;1.60;;
13834;SDS011;6988;52.614;13.500;2023-04-25T14:08:30;3.20;;;1.50;;
13834;SDS011;6988;52.614;13.500;2023-04-25T14:13:22;6.20;;;1.90;;
13834;SDS011;6988;52.614;13.500;2023-04-25T14:18:15;6.87;;;1.60;;
13834;SDS011;6988;52.614;13.500;2023-04-25T14:23:06;7.43;;;1.67;;
13834;SDS011;6988;52.614;13.500;2023-04-25T14:27:59;5.43;;;1.80;;
13834;SDS011;6988;52.614;13.500;2023-04-25T14:32:51;6.63;;;1.87;;
13834;SDS011;6988;52.614;13.500;2023-04-25T14:37:43;4.10;;;1.40;;
13834;SDS011;6988;52.614;13.500;2023-04-25T14:47:39;6.13;;;1.50;;
13834;SDS011;6988;52.614;13.500;2023-04-25T15:07:06;4.70;;;1.30;;
13834;SDS011;6988;52.614;13.500;2023-04-25T15:11:58;3.47;;;1.20;;
13834;SDS011;6988;52.614;13.500;2023-04-25T15:16:50;4.03;;;1.80;;
13834;SDS011;6988;52.614;13.500;2023-04-25T15:21:42;5.50;;;1.33;;
13834;SDS011;6988;52.614;13.500;2023-04-25T15:26:35;5.20;;;1.07;;
13834;SDS011;6988;52.614;13.500;2023-04-25T15:31:27;2.97;;;1.00;;
13834;SDS011;6988;52.614;13.500;2023-04-25T15:36:19;3.70;;;0.90;;
13834;SDS011;6988;52.614;13.500;2023-04-25T15:41:11;2.30;;;0.80;;
13834;SDS011;6988;52.614;13.500;2023-04-25T15:46:05;2.73;;;0.90;;
13834;SDS011;6988;52.614;13.500;2023-04-25T15:50:56;4.70;;;1.10;;
13834;SDS011;6988;52.614;13.500;2023-04-25T15:55:48;4.23;;;0.83;;
13834;SDS011;6988;52.614;13.500;2023-04-25T16:00:40;3.70;;;1.30;;
13834;SDS011;6988;52.614;13.500;2023-04-25T16:05:33;4.07;;;0.97;;
13834;SDS011;6988;52.614;13.500;2023-04-25T16:10:26;2.63;;;1.07;;
13834;SDS011;6988;52.614;13.500;2023-04-25T16:15:17;4.87;;;1.40;;
13834;SDS011;6988;52.614;13.500;2023-04-25T16:20:10;3.33;;;0.97;;
13834;SDS011;6988;52.614;13.500;2023-04-25T16:25:05;3.43;;;0.70;;
13834;SDS011;6988;52.614;13.500;2023-04-25T16:29:58;5.43;;;1.00;;
13834;SDS011;6988;52.614;13.500;2023-04-25T16:34:50;4.43;;;1.10;;
13834;SDS011;6988;52.614;13.500;2023-04-25T16:39:42;4.13;;;0.90;;
13834;SDS011;6988;52.614;13.500;2023-04-25T16:44:35;4.53;;;0.97;;
13834;SDS011;6988;52.614;13.500;2023-04-25T16:49:27;2.17;;;0.90;;
13834;SDS011;6988;52.614;13.500;2023-04-25T16:54:18;3.20;;;1.00;;
13834;SDS011;6988;52.614;13.500;2023-04-25T16:59:10;3.67;;;1.10;;
13834;SDS011;6988;52.614;13.500;2023-04-25T17:04:03;4.73;;;1.00;;
13834;SDS011;6988;52.614;13.500;2023-04-25T17:08:55;3.33;;;1.10;;
13834;SDS011;6988;52.614;13.500;2023-04-25T17:13:47;3.83;;;0.90;;
13834;SDS011;6988;52.614;13.500;2023-04-25T17:18:38;3.47;;;1.00;;
13834;SDS011;6988;52.614;13.500;2023-04-25T17:23:32;3.97;;;1.10;;
13834;SDS011;6988;52.614;13.500;2023-04-25T17:28:24;4.67;;;1.30;;
13834;SDS011;6988;52.614;13.500;2023-04-25T17:33:16;4.80;;;1.20;;
13834;SDS011;6988;52.614;13.500;2023-04-25T17:38:08;6.63;;;1.30;;
13834;SDS011;6988;52.614;13.500;2023-04-25T17:43:01;3.57;;;1.20;;
13834;SDS011;6988;52.614;13.500;2023-04-25T17:47:53;1.90;;;1.00;;
13834;SDS011;6988;52.614;13.500;2023-04-25T17:52:45;6.97;;;1.50;;
13834;SDS011;6988;52.614;13.500;2023-04-25T17:57:37;2.13;;;0.90;;
13834;SDS011;6988;52.614;13.500;2023-04-25T18:02:30;4.07;;;1.20;;
13834;SDS011;6988;52.614;13.500;2023-04-25T18:07:22;5.90;;;1.17;;
13834;SDS011;6988;52.614;13.500;2023-04-25T18:12:13;3.40;;;1.40;;
13834;SDS011;6988;52.614;13.500;2023-04-25T18:17:07;4.43;;;1.50;;
13834;SDS011;6988;52.614;13.500;2023-04-25T18:22:00;5.47;;;1.43;;
13834;SDS011;6988;52.614;13.500;2023-04-25T18:26:52;3.93;;;1.70;;
13834;SDS011;6988;52.614;13.500;2023-04-25T18:31:45;2.90;;;1.17;;
13834;SDS011;6988;52.614;13.500;2023-04-25T18:36:38;4.47;;;1.67;;
13834;SDS011;6988;52.614;13.500;2023-04-25T18:41:35;3.87;;;1.40;;
13834;SDS011;6988;52.614;13.500;2023-04-25T18:46:28;6.37;;;1.30;;
13834;SDS011;6988;52.614;13.500;2023-04-25T18:51:22;3.87;;;1.50;;
13834;SDS011;6988;52.614;13.500;2023-04-25T18:56:16;3.80;;;1.30;;
13834;SDS011;6988;52.614;13.500;2023-04-25T19:01:11;4.43;;;1.30;;
13834;SDS011;6988;52.614;13.500;2023-04-25T19:06:03;4.53;;;1.40;;
13834;SDS011;6988;52.614;13.500;2023-04-25T19:10:55;8.20;;;1.40;;
13834;SDS011;6988;52.614;13.500;2023-04-25T19:15:47;6.17;;;1.60;;
13834;SDS011;6988;52.614;13.500;2023-04-25T19:20:41;5.37;;;1.47;;
13834;SDS011;6988;52.614;13.500;2023-04-25T19:25:33;5.67;;;1.60;;
13834;SDS011;6988;52.614;13.500;2023-04-25T19:30:25;5.50;;;1.60;;
13834;SDS011;6988;52.614;13.500;2023-04-25T19:35:18;10.57;;;2.27;;
13834;SDS011;6988;52.614;13.500;2023-04-25T19:40:12;5.47;;;1.97;;
13834;SDS011;6988;52.614;13.500;2023-04-25T19:45:06;4.57;;;2.10;;
13834;SDS011;6988;52.614;13.500;2023-04-25T19:49:59;3.80;;;1.73;;
13834;SDS011;6988;52.614;13.500;2023-04-25T19:54:51;4.80;;;1.60;;
13834;SDS011;6988;52.614;13.500;2023-04-25T19:59:48;4.63;;;1.60;;
13834;SDS011;6988;52.614;13.500;2023-04-25T20:04:40;4.17;;;1.57;;
13834;SDS011;6988;52.614;13.500;2023-04-25T20:09:32;7.50;;;1.80;;
13834;SDS011;6988;52.614;13.500;2023-04-25T20:14:23;5.43;;;1.50;;
13834;SDS011;6988;52.614;13.500;2023-04-25T20:19:17;5.83;;;1.97;;
13834;SDS011;6988;52.614;13.500;2023-04-25T20:24:09;5.17;;;1.70;;
13834;SDS011;6988;52.614;13.500;2023-04-25T20:29:01;5.47;;;1.57;;
13834;SDS011;6988;52.614;13.500;2023-04-25T20:33:53;3.80;;;1.43;;
13834;SDS011;6988;52.614;13.500;2023-04-25T20:38:46;5.07;;;1.83;;
13834;SDS011;6988;52.614;13.500;2023-04-25T20:43:38;5.13;;;2.03;;
13834;SDS011;6988;52.614;13.500;2023-04-25T20:48:31;4.40;;;1.30;;
13834;SDS011;6988;52.614;13.500;2023-04-25T20:53:23;8.10;;;1.90;;
13834;SDS011;6988;52.614;13.500;2023-04-25T20:58:16;5.17;;;1.80;;
13834;SDS011;6988;52.614;13.500;2023-04-25T21:03:09;6.13;;;1.73;;
13834;SDS011;6988;52.614;13.500;2023-04-25T21:08:01;5.83;;;1.60;;
13834;SDS011;6988;52.614;13.500;2023-04-25T21:12:54;5.40;;;1.60;;
13834;SDS011;6988;52.614;13.500;2023-04-25T21:17:48;4.90;;;1.33;;
13834;SDS011;6988;52.614;13.500;2023-04-25T21:22:41;4.40;;;1.30;;
13834;SDS011;6988;52.614;13.500;2023-04-25T21:27:37;6.60;;;1.47;;
13834;SDS011;6988;52.614;13.500;2023-04-25T21:32:29;7.20;;;1.70;;
13834;SDS011;6988;52.614;13.500;2023-04-25T21:37:22;6.37;;;1.80;;
13834;SDS011;6988;52.614;13.500;2023-04-25T21:42:14;6.97;;;1.60;;
13834;SDS011;6988;52.614;13.500;2023-04-25T22:05:05;7.23;;;1.90;;
13834;SDS011;6988;52.614;13.500;2023-04-25T22:09:58;6.90;;;1.97;;
13834;SDS011;6988;52.614;13.500;2023-04-25T22:14:50;7.90;;;1.90;;
13834;SDS011;6988;52.614;13.500;2023-04-25T22:19:42;4.77;;;1.60;;
13834;SDS011;6988;52.614;13.500;2023-04-25T22:24:35;7.30;;;1.90;;
13834;SDS011;6988;52.614;13.500;2023-04-25T22:29:27;6.07;;;1.80;;
13834;SDS011;6988;52.614;13.500;2023-04-25T22:34:19;6.23;;;1.80;;
13834;SDS011;6988;52.614;13.500;2023-04-25T22:39:11;9.53;;;2.00;;
13834;SDS011;6988;52.614;13.500;2023-04-25T22:44:05;6.83;;;1.73;;
13834;SDS011;6988;52.614;13.500;2023-04-25T22:48:57;7.77;;;1.87;;
13834;SDS011;6988;52.614;13.500;2023-04-25T22:53:49;5.93;;;1.90;;
13834;SDS011;6988;52.614;13.500;2023-04-25T22:58:41;5.97;;;1.70;;
13834;SDS011;6988;52.614;13.500;2023-04-25T23:03:34;8.73;;;2.13;;
13834;SDS011;6988;52.614;13.500;2023-04-25T23:08:27;5.27;;;1.70;;
13834;SDS011;6988;52.614;13.500;2023-04-25T23:13:19;7.60;;;1.80;;
13834;SDS011;6988;52.614;13.500;2023-04-25T23:18:11;6.47;;;1.83;;
13834;SDS011;6988;52.614;13.500;2023-04-25T23:23:05;6.43;;;1.87;;
13834;SDS011;6988;52.614;13.500;2023-04-25T23:27:57;7.97;;;2.13;;
13834;SDS011;6988;52.614;13.500;2023-04-25T23:32:49;5.17;;;1.70;;
13834;SDS011;6988;52.614;13.500;2023-04-25T23:37:42;6.93;;;2.00;;
13834;SDS011;6988;52.614;13.500;2023-04-25T23:42:39;6.83;;;1.77;;
13834;SDS011;6988;52.614;13.500;2023-04-25T23:47:32;4.83;;;1.30;;
13834;SDS011;6988;52.614;13.500;2023-04-25T23:52:24;10.20;;;2.00;;
13834;SDS011;6988;52.614;13.500;2023-04-25T23:57:17;9.83;;;1.87;;
